createdAt,value
2022-08-16T00:04:53.041Z,969.98
2022-08-16T00:11:29.792Z,969.94
2022-08-16T00:18:11.406Z,969.93
2022-08-16T00:24:52.199Z,969.86
2022-08-16T00:31:25.087Z,969.83
2022-08-16T00:38:38.372Z,969.84
2022-08-16T00:45:00.918Z,969.86
2022-08-16T00:51:58.374Z,969.9
2022-08-16T00:58:47.727Z,969.9
2022-08-16T01:05:39.472Z,969.89
2022-08-16T01:12:27.202Z,969.92
2022-08-16T01:19:19.077Z,969.95
2022-08-16T01:26:35.518Z,969.9
2022-08-16T01:33:36.306Z,969.88
2022-08-16T01:40:19.058Z,969.98
2022-08-16T01:47:05.065Z,969.98
2022-08-16T01:53:56.257Z,969.98
2022-08-16T02:00:32.376Z,969.98
2022-08-16T02:07:11.616Z,969.96
2022-08-16T02:13:43.950Z,970.02
2022-08-16T02:20:27.989Z,969.99
2022-08-16T02:27:06.332Z,969.93
2022-08-16T02:33:50.998Z,969.93
2022-08-16T02:40:22.817Z,969.83
2022-08-16T02:47:04.339Z,969.78
2022-08-16T02:53:43.722Z,969.79
2022-08-16T03:00:32.179Z,969.76
2022-08-16T03:07:04.993Z,969.82
2022-08-16T03:13:30.330Z,969.87
2022-08-16T03:20:05.404Z,969.85
2022-08-16T03:26:33.161Z,969.88
2022-08-16T03:33:08.859Z,969.92
2022-08-16T03:39:43.476Z,969.87
2022-08-16T03:46:05.235Z,969.83
2022-08-16T03:52:32.828Z,969.81
2022-08-16T03:59:18.227Z,969.78
2022-08-16T04:05:47.130Z,969.77
2022-08-16T04:12:53.054Z,969.86
2022-08-16T04:19:22.317Z,969.85
2022-08-16T04:25:54.496Z,969.85
2022-08-16T04:32:36.261Z,969.82
2022-08-16T04:39:09.471Z,969.88
2022-08-16T04:45:43.582Z,969.91
2022-08-16T04:52:32.940Z,969.99
2022-08-16T04:58:58.570Z,970.05
2022-08-16T05:05:45.568Z,970
2022-08-16T05:12:31.849Z,970.11
2022-08-16T05:19:00.873Z,970.11
2022-08-16T05:25:40.878Z,970.25
2022-08-16T05:32:32.199Z,970.27
2022-08-16T05:39:03.155Z,970.34
2022-08-16T05:45:37.468Z,970.4
2022-08-16T05:52:17.373Z,970.5
2022-08-16T05:58:51.820Z,970.52
2022-08-16T06:05:26.661Z,970.46
2022-08-16T06:11:51.888Z,970.37
2022-08-16T06:18:28.877Z,970.43
2022-08-16T06:24:56.643Z,970.42
2022-08-16T06:31:38.418Z,970.58
2022-08-16T06:38:33.147Z,970.71
2022-08-16T06:44:54.787Z,970.67
2022-08-16T06:51:45.318Z,970.5
2022-08-16T06:58:31.310Z,970.46
2022-08-16T07:05:02.020Z,970.47
2022-08-16T07:11:46.339Z,970.57
2022-08-16T07:18:26.722Z,970.5
2022-08-16T07:24:52.982Z,970.53
2022-08-16T07:31:38.463Z,970.59
2022-08-16T07:38:04.328Z,970.57
2022-08-16T07:44:49.247Z,970.62
2022-08-16T07:51:24.096Z,970.65
2022-08-16T07:58:00.840Z,970.71
2022-08-16T08:04:34.453Z,970.72
2022-08-16T08:11:09.541Z,970.72
2022-08-16T08:17:46.005Z,970.7
2022-08-16T08:24:15.934Z,970.76
2022-08-16T08:30:50.721Z,970.75
2022-08-16T08:37:16.288Z,970.88
2022-08-16T08:43:42.672Z,970.91
2022-08-16T08:50:31.875Z,970.99
2022-08-16T08:57:01.703Z,970.98
2022-08-16T09:03:34.513Z,970.87
2022-08-16T09:10:20.582Z,970.91
2022-08-16T09:17:02.595Z,970.97
2022-08-16T09:23:28.394Z,970.93
2022-08-16T09:30:33.970Z,970.95
2022-08-16T09:36:47.115Z,970.95
2022-08-16T09:43:58.953Z,970.94
2022-08-16T09:50:22.802Z,970.94
2022-08-16T09:57:13.130Z,970.97
2022-08-16T10:04:01.427Z,970.93
2022-08-16T10:10:31.682Z,970.88
2022-08-16T10:17:03.140Z,970.9
2022-08-16T10:23:35.340Z,970.88
2022-08-16T10:30:25.518Z,970.78
2022-08-16T10:36:45.238Z,970.8
2022-08-16T10:43:19.384Z,970.9
2022-08-16T10:49:51.280Z,970.93
2022-08-16T10:56:53.012Z,970.94
2022-08-16T11:03:06.786Z,970.92
2022-08-16T11:09:44.571Z,971.04
2022-08-16T11:16:27.492Z,971
2022-08-16T11:22:57.058Z,971.03
2022-08-16T11:29:30.469Z,971.03
2022-08-16T11:36:25.218Z,971.07
2022-08-16T11:42:55.871Z,971.04
2022-08-16T11:49:24.946Z,971
2022-08-16T11:55:55.909Z,971
2022-08-16T12:02:33.286Z,971
2022-08-16T12:09:04.377Z,971.02
2022-08-16T12:15:34.947Z,971
2022-08-16T12:22:18.711Z,970.88
2022-08-16T12:28:55.267Z,970.83
2022-08-16T12:35:28.611Z,970.87
2022-08-16T12:42:03.864Z,970.86
2022-08-16T12:48:39.864Z,970.82
2022-08-16T12:55:16.732Z,970.82
2022-08-16T13:01:57.967Z,970.79
2022-08-16T13:08:33.782Z,970.78
2022-08-16T13:15:15.393Z,970.73
2022-08-16T13:21:51.070Z,970.77
2022-08-16T13:28:29.323Z,970.76
2022-08-16T13:34:52.135Z,970.79
2022-08-16T13:41:30.998Z,970.79
2022-08-16T13:48:19.343Z,970.73
2022-08-16T13:54:46.209Z,970.72
2022-08-16T14:01:10.842Z,970.77
2022-08-16T14:07:42.765Z,970.75
2022-08-16T14:14:16.065Z,970.69
2022-08-16T14:20:39.037Z,970.61
2022-08-16T14:27:23.308Z,970.57
2022-08-16T14:34:01.826Z,970.54
2022-08-16T14:40:31.204Z,970.56
2022-08-16T14:46:56.081Z,970.54
2022-08-16T14:53:52.142Z,970.5
2022-08-16T15:00:19.912Z,970.5
2022-08-16T15:06:56.089Z,970.45
2022-08-16T15:13:24.569Z,970.41
2022-08-16T15:19:46.297Z,970.35
2022-08-16T15:26:34.701Z,970.35
2022-08-16T15:33:05.021Z,970.34
2022-08-16T15:39:40.995Z,970.34
2022-08-16T15:46:09.343Z,970.42
2022-08-16T15:52:47.167Z,970.47
2022-08-16T15:59:14.688Z,970.45
2022-08-16T16:05:45.628Z,970.46
2022-08-16T16:12:50.700Z,970.49
2022-08-16T16:19:07.705Z,970.48
2022-08-16T16:25:50.805Z,970.38
2022-08-16T16:32:35.452Z,970.41
2022-08-16T16:39:11.210Z,970.39
2022-08-16T16:45:37.265Z,970.36
2022-08-16T16:52:31.449Z,970.32
2022-08-16T16:59:02.467Z,970.38
2022-08-16T17:05:38.285Z,970.38
2022-08-16T17:12:06.381Z,970.39
2022-08-16T17:19:02.104Z,970.36
2022-08-16T17:25:38.927Z,970.39
2022-08-16T17:32:34.580Z,970.36
2022-08-16T17:39:00.828Z,970.4
2022-08-16T17:45:34.625Z,970.38
2022-08-16T17:52:00.545Z,970.36
2022-08-16T17:58:38.695Z,970.34
2022-08-16T18:05:09.216Z,970.34
2022-08-16T18:11:45.449Z,970.4
2022-08-16T18:18:12.803Z,970.4
2022-08-16T18:24:53.294Z,970.43
2022-08-16T18:31:35.082Z,970.4
2022-08-16T18:38:08.309Z,970.46
2022-08-16T18:44:50.348Z,970.48
2022-08-16T18:51:33.222Z,970.52
2022-08-16T18:58:09.387Z,970.49
2022-08-16T19:04:57.509Z,970.6
2022-08-16T19:11:33.126Z,970.73
2022-08-16T19:18:05.178Z,970.79
2022-08-16T19:24:43.461Z,970.84
2022-08-16T19:31:10.767Z,970.91
2022-08-16T19:37:48.488Z,971.04
2022-08-16T19:44:19.275Z,971.11
2022-08-16T19:50:45.709Z,971.2
2022-08-16T19:57:16.547Z,971.28
2022-08-16T20:03:51.313Z,971.41
2022-08-16T20:10:30.380Z,971.43
2022-08-16T20:17:13.860Z,971.48
2022-08-16T20:23:47.195Z,971.53
2022-08-16T20:30:16.931Z,971.57
2022-08-16T20:36:43.542Z,971.57
2022-08-16T20:43:06.407Z,971.62
2022-08-16T20:49:36.158Z,971.68
2022-08-16T20:56:01.369Z,971.72
2022-08-16T21:02:39.434Z,971.69
2022-08-16T21:09:24.506Z,971.65
2022-08-16T21:16:10.452Z,971.71
2022-08-16T21:22:33.858Z,971.65
2022-08-16T21:29:15.578Z,971.6
2022-08-16T21:35:49.785Z,971.62
2022-08-16T21:42:19.848Z,971.66
2022-08-16T21:49:05.641Z,971.56
2022-08-16T21:55:44.712Z,971.51
2022-08-16T22:02:12.626Z,971.5
2022-08-16T22:08:51.570Z,971.52
2022-08-16T22:15:25.555Z,971.55
2022-08-16T22:22:05.362Z,971.58
2022-08-16T22:28:35.416Z,971.51
2022-08-16T22:35:15.044Z,971.73
2022-08-16T22:41:56.713Z,971.83
2022-08-16T22:48:43.356Z,971.77
2022-08-16T22:55:18.807Z,971.75
2022-08-16T23:01:47.714Z,971.78
2022-08-16T23:08:33.693Z,971.85
2022-08-16T23:15:23.778Z,971.78
2022-08-16T23:22:24.680Z,971.75
2022-08-16T23:28:51.926Z,971.75
2022-08-16T23:35:22.866Z,971.76
2022-08-16T23:41:58.498Z,971.71
2022-08-16T23:49:45.500Z,971.62
2022-08-16T23:55:23.163Z,971.67
